sensor_id;sensor_type;location;lat;lon;timestamp;P1;durP1;ratioP1;P2;durP2;ratioP2
20114;SDS011;10218;42.874;25.320;2023-02-19T00:01:47;10.53;;;6.27;;
20114;SDS011;10218;42.874;25.320;2023-02-19T00:04:15;7.57;;;3.53;;
20114;SDS011;10218;42.874;25.320;2023-02-19T00:06:45;18.77;;;10.47;;
20114;SDS011;10218;42.874;25.320;2023-02-19T00:09:14;18.57;;;9.77;;
20114;SDS011;10218;42.874;25.320;2023-02-19T00:11:43;16.67;;;9.00;;
20114;SDS011;10218;42.874;25.320;2023-02-19T00:14:23;14.90;;;8.43;;
20114;SDS011;10218;42.874;25.320;2023-02-19T00:17:26;23.53;;;13.67;;
20114;SDS011;10218;42.874;25.320;2023-02-19T00:19:55;25.77;;;13.27;;
20114;SDS011;10218;42.874;25.320;2023-02-19T00:22:22;29.53;;;13.40;;
20114;SDS011;10218;42.874;25.320;2023-02-19T00:24:50;22.77;;;11.60;;
20114;SDS011;10218;42.874;25.320;2023-02-19T00:27:17;21.67;;;11.47;;
20114;SDS011;10218;42.874;25.320;2023-02-19T00:29:45;23.90;;;12.37;;
20114;SDS011;10218;42.874;25.320;2023-02-19T00:32:12;32.97;;;15.20;;
20114;SDS011;10218;42.874;25.320;2023-02-19T00:34:41;33.63;;;17.50;;
20114;SDS011;10218;42.874;25.320;2023-02-19T00:37:08;45.13;;;19.87;;
20114;SDS011;10218;42.874;25.320;2023-02-19T00:39:35;44.07;;;20.67;;
20114;SDS011;10218;42.874;25.320;2023-02-19T00:42:04;41.37;;;21.00;;
20114;SDS011;10218;42.874;25.320;2023-02-19T00:44:32;36.33;;;18.37;;
20114;SDS011;10218;42.874;25.320;2023-02-19T00:46:59;25.77;;;13.43;;
20114;SDS011;10218;42.874;25.320;2023-02-19T00:49:26;21.47;;;10.50;;
20114;SDS011;10218;42.874;25.320;2023-02-19T00:51:54;16.50;;;9.50;;
20114;SDS011;10218;42.874;25.320;2023-02-19T00:54:26;20.70;;;10.73;;
20114;SDS011;10218;42.874;25.320;2023-02-19T00:57:38;18.67;;;10.30;;
20114;SDS011;10218;42.874;25.320;2023-02-19T01:00:05;19.97;;;10.80;;
20114;SDS011;10218;42.874;25.320;2023-02-19T01:02:32;18.87;;;9.63;;
20114;SDS011;10218;42.874;25.320;2023-02-19T01:05:00;16.03;;;9.10;;
20114;SDS011;10218;42.874;25.320;2023-02-19T01:07:27;17.93;;;8.70;;
20114;SDS011;10218;42.874;25.320;2023-02-19T01:09:56;22.30;;;9.30;;
20114;SDS011;10218;42.874;25.320;2023-02-19T01:12:26;16.77;;;8.77;;
20114;SDS011;10218;42.874;25.320;2023-02-19T01:14:53;14.70;;;7.70;;
20114;SDS011;10218;42.874;25.320;2023-02-19T01:17:22;10.80;;;6.17;;
20114;SDS011;10218;42.874;25.320;2023-02-19T01:19:51;11.67;;;6.00;;
20114;SDS011;10218;42.874;25.320;2023-02-19T01:22:18;12.17;;;6.47;;
20114;SDS011;10218;42.874;25.320;2023-02-19T01:24:45;10.17;;;5.57;;
20114;SDS011;10218;42.874;25.320;2023-02-19T01:27:13;11.63;;;6.30;;
20114;SDS011;10218;42.874;25.320;2023-02-19T01:29:41;13.53;;;6.90;;
20114;SDS011;10218;42.874;25.320;2023-02-19T01:32:08;17.33;;;7.77;;
20114;SDS011;10218;42.874;25.320;2023-02-19T01:34:41;13.77;;;6.67;;
20114;SDS011;10218;42.874;25.320;2023-02-19T01:37:44;19.57;;;7.67;;
20114;SDS011;10218;42.874;25.320;2023-02-19T01:40:11;19.40;;;8.40;;
20114;SDS011;10218;42.874;25.320;2023-02-19T01:42:41;16.93;;;7.33;;
20114;SDS011;10218;42.874;25.320;2023-02-19T01:45:27;12.20;;;6.60;;
20114;SDS011;10218;42.874;25.320;2023-02-19T01:48:03;12.90;;;7.27;;
20114;SDS011;10218;42.874;25.320;2023-02-19T01:50:49;15.33;;;7.60;;
20114;SDS011;10218;42.874;25.320;2023-02-19T01:53:23;12.37;;;7.03;;
20114;SDS011;10218;42.874;25.320;2023-02-19T01:55:55;12.03;;;7.23;;
20114;SDS011;10218;42.874;25.320;2023-02-19T01:58:28;12.50;;;7.47;;
20114;SDS011;10218;42.874;25.320;2023-02-19T02:01:03;14.60;;;6.60;;
20114;SDS011;10218;42.874;25.320;2023-02-19T02:03:35;12.40;;;7.10;;
20114;SDS011;10218;42.874;25.320;2023-02-19T02:06:23;11.80;;;6.90;;
20114;SDS011;10218;42.874;25.320;2023-02-19T02:08:57;16.00;;;7.00;;
20114;SDS011;10218;42.874;25.320;2023-02-19T02:11:48;13.73;;;7.37;;
20114;SDS011;10218;42.874;25.320;2023-02-19T02:14:22;17.07;;;7.57;;
20114;SDS011;10218;42.874;25.320;2023-02-19T02:21:58;17.20;;;8.80;;
20114;SDS011;10218;42.874;25.320;2023-02-19T02:24:49;14.03;;;7.40;;
20114;SDS011;10218;42.874;25.320;2023-02-19T02:36:15;12.67;;;7.00;;
20114;SDS011;10218;42.874;25.320;2023-02-19T02:38:47;12.90;;;6.20;;
20114;SDS011;10218;42.874;25.320;2023-02-19T02:41:20;14.83;;;7.23;;
20114;SDS011;10218;42.874;25.320;2023-02-19T02:43:53;14.13;;;7.47;;
20114;SDS011;10218;42.874;25.320;2023-02-19T02:46:26;15.60;;;7.23;;
20114;SDS011;10218;42.874;25.320;2023-02-19T02:48:57;12.40;;;6.73;;
20114;SDS011;10218;42.874;25.320;2023-02-19T02:51:35;11.03;;;5.90;;
20114;SDS011;10218;42.874;25.320;2023-02-19T02:54:17;13.60;;;6.23;;
20114;SDS011;10218;42.874;25.320;2023-02-19T02:57:09;11.13;;;5.60;;
20114;SDS011;10218;42.874;25.320;2023-02-19T02:59:42;8.07;;;4.63;;
20114;SDS011;10218;42.874;25.320;2023-02-19T03:02:19;8.77;;;4.90;;
20114;SDS011;10218;42.874;25.320;2023-02-19T03:04:53;11.20;;;5.27;;
20114;SDS011;10218;42.874;25.320;2023-02-19T03:11:07;6.80;;;3.97;;
20114;SDS011;10218;42.874;25.320;2023-02-19T03:14:00;6.80;;;4.20;;
20114;SDS011;10218;42.874;25.320;2023-02-19T03:16:53;11.33;;;5.37;;
20114;SDS011;10218;42.874;25.320;2023-02-19T03:19:47;13.93;;;6.27;;
20114;SDS011;10218;42.874;25.320;2023-02-19T03:22:21;16.37;;;5.93;;
20114;SDS011;10218;42.874;25.320;2023-02-19T03:24:58;12.70;;;6.27;;
20114;SDS011;10218;42.874;25.320;2023-02-19T03:27:49;12.00;;;6.33;;
20114;SDS011;10218;42.874;25.320;2023-02-19T03:30:30;12.67;;;6.07;;
20114;SDS011;10218;42.874;25.320;2023-02-19T03:33:19;9.07;;;5.33;;
20114;SDS011;10218;42.874;25.320;2023-02-19T03:35:52;18.90;;;6.20;;
20114;SDS011;10218;42.874;25.320;2023-02-19T03:38:33;10.37;;;6.23;;
20114;SDS011;10218;42.874;25.320;2023-02-19T03:49:05;9.73;;;5.63;;
20114;SDS011;10218;42.874;25.320;2023-02-19T03:51:46;12.50;;;6.80;;
20114;SDS011;10218;42.874;25.320;2023-02-19T03:54:22;9.80;;;5.70;;
20114;SDS011;10218;42.874;25.320;2023-02-19T03:57:06;9.03;;;5.73;;
20114;SDS011;10218;42.874;25.320;2023-02-19T03:59:47;11.30;;;6.80;;
20114;SDS011;10218;42.874;25.320;2023-02-19T04:02:27;12.67;;;7.40;;
20114;SDS011;10218;42.874;25.320;2023-02-19T04:05:22;11.97;;;7.20;;
20114;SDS011;10218;42.874;25.320;2023-02-19T04:07:56;11.13;;;7.13;;
20114;SDS011;10218;42.874;25.320;2023-02-19T04:10:30;16.90;;;6.97;;
20114;SDS011;10218;42.874;25.320;2023-02-19T04:12:59;13.23;;;6.50;;
20114;SDS011;10218;42.874;25.320;2023-02-19T04:15:40;18.40;;;9.60;;
20114;SDS011;10218;42.874;25.320;2023-02-19T04:18:17;19.67;;;10.57;;
20114;SDS011;10218;42.874;25.320;2023-02-19T04:20:49;24.90;;;12.57;;
20114;SDS011;10218;42.874;25.320;2023-02-19T04:23:19;18.47;;;10.00;;
20114;SDS011;10218;42.874;25.320;2023-02-19T04:25:53;12.50;;;7.60;;
20114;SDS011;10218;42.874;25.320;2023-02-19T04:28:25;14.33;;;7.83;;
20114;SDS011;10218;42.874;25.320;2023-02-19T04:30:54;17.63;;;9.60;;
20114;SDS011;10218;42.874;25.320;2023-02-19T04:33:22;15.97;;;8.20;;
20114;SDS011;10218;42.874;25.320;2023-02-19T04:35:49;15.53;;;8.57;;
20114;SDS011;10218;42.874;25.320;2023-02-19T04:38:17;20.77;;;11.17;;
20114;SDS011;10218;42.874;25.320;2023-02-19T04:40:45;20.97;;;12.33;;
20114;SDS011;10218;42.874;25.320;2023-02-19T04:43:14;19.97;;;11.37;;
20114;SDS011;10218;42.874;25.320;2023-02-19T04:45:42;15.17;;;8.70;;
20114;SDS011;10218;42.874;25.320;2023-02-19T04:48:09;14.10;;;8.23;;
20114;SDS011;10218;42.874;25.320;2023-02-19T04:50:37;17.90;;;9.03;;
20114;SDS011;10218;42.874;25.320;2023-02-19T04:53:06;19.87;;;9.37;;
20114;SDS011;10218;42.874;25.320;2023-02-19T04:55:37;19.07;;;9.07;;
20114;SDS011;10218;42.874;25.320;2023-02-19T04:58:04;18.77;;;9.27;;
20114;SDS011;10218;42.874;25.320;2023-02-19T05:00:33;31.67;;;12.90;;
20114;SDS011;10218;42.874;25.320;2023-02-19T05:03:00;27.30;;;12.00;;
20114;SDS011;10218;42.874;25.320;2023-02-19T05:05:27;27.87;;;14.30;;
20114;SDS011;10218;42.874;25.320;2023-02-19T05:07:55;38.30;;;18.47;;
20114;SDS011;10218;42.874;25.320;2023-02-19T05:10:22;26.33;;;13.40;;
20114;SDS011;10218;42.874;25.320;2023-02-19T05:12:49;23.43;;;11.53;;
20114;SDS011;10218;42.874;25.320;2023-02-19T05:15:18;23.43;;;13.43;;
20114;SDS011;10218;42.874;25.320;2023-02-19T05:17:45;29.47;;;15.60;;
20114;SDS011;10218;42.874;25.320;2023-02-19T05:20:13;22.30;;;12.10;;
20114;SDS011;10218;42.874;25.320;2023-02-19T05:22:41;17.27;;;10.57;;
20114;SDS011;10218;42.874;25.320;2023-02-19T05:25:08;16.10;;;9.80;;
20114;SDS011;10218;42.874;25.320;2023-02-19T05:27:35;24.57;;;11.97;;
20114;SDS011;10218;42.874;25.320;2023-02-19T05:30:03;27.93;;;13.80;;
20114;SDS011;10218;42.874;25.320;2023-02-19T05:32:33;27.87;;;15.57;;
20114;SDS011;10218;42.874;25.320;2023-02-19T05:35:01;20.07;;;12.33;;
20114;SDS011;10218;42.874;25.320;2023-02-19T05:37:31;21.73;;;11.50;;
20114;SDS011;10218;42.874;25.320;2023-02-19T05:39:58;24.27;;;13.33;;
20114;SDS011;10218;42.874;25.320;2023-02-19T05:42:25;28.40;;;13.83;;
20114;SDS011;10218;42.874;25.320;2023-02-19T05:44:53;20.27;;;11.13;;
20114;SDS011;10218;42.874;25.320;2023-02-19T05:47:20;20.60;;;11.93;;
20114;SDS011;10218;42.874;25.320;2023-02-19T05:49:47;27.00;;;15.50;;
20114;SDS011;10218;42.874;25.320;2023-02-19T05:52:14;31.47;;;15.83;;
20114;SDS011;10218;42.874;25.320;2023-02-19T05:54:41;32.73;;;19.73;;
20114;SDS011;10218;42.874;25.320;2023-02-19T05:57:09;31.43;;;17.83;;
20114;SDS011;10218;42.874;25.320;2023-02-19T05:59:37;31.43;;;16.33;;
20114;SDS011;10218;42.874;25.320;2023-02-19T06:02:04;35.37;;;20.27;;
20114;SDS011;10218;42.874;25.320;2023-02-19T06:04:31;34.60;;;16.83;;
20114;SDS011;10218;42.874;25.320;2023-02-19T06:06:58;31.37;;;17.33;;
20114;SDS011;10218;42.874;25.320;2023-02-19T06:09:28;30.93;;;16.67;;
20114;SDS011;10218;42.874;25.320;2023-02-19T06:11:58;32.73;;;16.23;;
20114;SDS011;10218;42.874;25.320;2023-02-19T06:14:25;37.70;;;21.03;;
20114;SDS011;10218;42.874;25.320;2023-02-19T06:16:54;40.10;;;22.27;;
20114;SDS011;10218;42.874;25.320;2023-02-19T06:19:21;34.13;;;19.37;;
20114;SDS011;10218;42.874;25.320;2023-02-19T06:21:50;41.17;;;22.23;;
20114;SDS011;10218;42.874;25.320;2023-02-19T06:24:18;47.47;;;27.07;;
20114;SDS011;10218;42.874;25.320;2023-02-19T06:26:46;50.10;;;27.47;;
20114;SDS011;10218;42.874;25.320;2023-02-19T06:29:15;47.70;;;25.97;;
20114;SDS011;10218;42.874;25.320;2023-02-19T06:31:42;58.63;;;31.30;;
20114;SDS011;10218;42.874;25.320;2023-02-19T06:34:11;51.37;;;28.03;;
20114;SDS011;10218;42.874;25.320;2023-02-19T06:36:38;54.57;;;29.20;;
20114;SDS011;10218;42.874;25.320;2023-02-19T06:39:06;46.40;;;24.27;;
20114;SDS011;10218;42.874;25.320;2023-02-19T06:41:33;49.30;;;28.47;;
20114;SDS011;10218;42.874;25.320;2023-02-19T06:44:00;60.17;;;32.50;;
20114;SDS011;10218;42.874;25.320;2023-02-19T06:46:27;53.00;;;28.93;;
20114;SDS011;10218;42.874;25.320;2023-02-19T06:48:55;54.47;;;30.83;;
20114;SDS011;10218;42.874;25.320;2023-02-19T06:51:22;68.77;;;37.43;;
20114;SDS011;10218;42.874;25.320;2023-02-19T06:53:52;57.60;;;32.10;;
20114;SDS011;10218;42.874;25.320;2023-02-19T06:58:54;94.03;;;51.00;;
20114;SDS011;10218;42.874;25.320;2023-02-19T07:01:28;89.53;;;49.83;;
20114;SDS011;10218;42.874;25.320;2023-02-19T07:03:56;77.23;;;43.97;;
20114;SDS011;10218;42.874;25.320;2023-02-19T07:06:24;75.27;;;43.57;;
20114;SDS011;10218;42.874;25.320;2023-02-19T07:08:53;82.10;;;48.67;;
20114;SDS011;10218;42.874;25.320;2023-02-19T07:11:21;80.50;;;45.00;;
20114;SDS011;10218;42.874;25.320;2023-02-19T07:13:55;70.50;;;42.07;;
20114;SDS011;10218;42.874;25.320;2023-02-19T07:16:24;85.70;;;49.70;;
20114;SDS011;10218;42.874;25.320;2023-02-19T07:18:55;84.53;;;48.20;;
20114;SDS011;10218;42.874;25.320;2023-02-19T07:21:24;50.00;;;30.97;;
20114;SDS011;10218;42.874;25.320;2023-02-19T07:23:52;85.27;;;48.07;;
20114;SDS011;10218;42.874;25.320;2023-02-19T07:26:20;83.63;;;46.87;;
20114;SDS011;10218;42.874;25.320;2023-02-19T07:28:48;87.67;;;50.10;;
20114;SDS011;10218;42.874;25.320;2023-02-19T07:31:18;92.07;;;53.60;;
20114;SDS011;10218;42.874;25.320;2023-02-19T07:33:46;88.73;;;50.07;;
20114;SDS011;10218;42.874;25.320;2023-02-19T07:36:14;72.13;;;45.20;;
20114;SDS011;10218;42.874;25.320;2023-02-19T07:38:44;75.87;;;44.60;;
20114;SDS011;10218;42.874;25.320;2023-02-19T07:41:11;68.63;;;43.03;;
20114;SDS011;10218;42.874;25.320;2023-02-19T07:43:40;69.37;;;43.13;;
20114;SDS011;10218;42.874;25.320;2023-02-19T07:46:08;72.10;;;45.23;;
20114;SDS011;10218;42.874;25.320;2023-02-19T07:48:38;68.73;;;44.43;;
20114;SDS011;10218;42.874;25.320;2023-02-19T07:51:09;32.57;;;21.83;;
20114;SDS011;10218;42.874;25.320;2023-02-19T07:53:38;29.57;;;18.90;;
20114;SDS011;10218;42.874;25.320;2023-02-19T07:56:05;32.77;;;22.20;;
20114;SDS011;10218;42.874;25.320;2023-02-19T07:58:34;30.67;;;21.20;;
20114;SDS011;10218;42.874;25.320;2023-02-19T08:01:05;12.93;;;8.00;;
20114;SDS011;10218;42.874;25.320;2023-02-19T08:03:35;9.13;;;6.00;;
20114;SDS011;10218;42.874;25.320;2023-02-19T08:06:04;4.67;;;3.43;;
20114;SDS011;10218;42.874;25.320;2023-02-19T08:08:32;7.73;;;3.63;;
20114;SDS011;10218;42.874;25.320;2023-02-19T08:11:01;5.20;;;3.50;;
20114;SDS011;10218;42.874;25.320;2023-02-19T08:13:49;5.00;;;2.53;;
20114;SDS011;10218;42.874;25.320;2023-02-19T08:16:18;6.93;;;3.03;;
20114;SDS011;10218;42.874;25.320;2023-02-19T08:18:58;4.07;;;2.63;;
20114;SDS011;10218;42.874;25.320;2023-02-19T08:21:27;4.50;;;2.50;;
20114;SDS011;10218;42.874;25.320;2023-02-19T08:23:55;11.57;;;4.27;;
20114;SDS011;10218;42.874;25.320;2023-02-19T08:26:22;8.83;;;3.20;;
20114;SDS011;10218;42.874;25.320;2023-02-19T08:28:49;6.27;;;2.70;;
20114;SDS011;10218;42.874;25.320;2023-02-19T08:31:16;3.37;;;2.43;;
20114;SDS011;10218;42.874;25.320;2023-02-19T08:33:44;3.63;;;2.50;;
20114;SDS011;10218;42.874;25.320;2023-02-19T08:36:12;3.37;;;2.40;;
20114;SDS011;10218;42.874;25.320;2023-02-19T08:38:40;5.67;;;2.40;;
20114;SDS011;10218;42.874;25.320;2023-02-19T08:41:10;9.37;;;2.83;;
20114;SDS011;10218;42.874;25.320;2023-02-19T08:43:39;5.03;;;2.60;;
20114;SDS011;10218;42.874;25.320;2023-02-19T08:46:07;3.07;;;2.33;;
20114;SDS011;10218;42.874;25.320;2023-02-19T08:48:36;3.33;;;2.30;;
20114;SDS011;10218;42.874;25.320;2023-02-19T08:51:05;6.57;;;2.53;;
20114;SDS011;10218;42.874;25.320;2023-02-19T08:53:37;3.43;;;2.20;;
20114;SDS011;10218;42.874;25.320;2023-02-19T08:56:06;7.03;;;2.60;;
20114;SDS011;10218;42.874;25.320;2023-02-19T08:58:35;3.73;;;2.20;;
20114;SDS011;10218;42.874;25.320;2023-02-19T09:01:08;3.33;;;2.40;;
20114;SDS011;10218;42.874;25.320;2023-02-19T09:03:38;4.33;;;2.30;;
20114;SDS011;10218;42.874;25.320;2023-02-19T09:06:06;4.27;;;2.57;;
20114;SDS011;10218;42.874;25.320;2023-02-19T09:08:33;5.67;;;2.20;;
20114;SDS011;10218;42.874;25.320;2023-02-19T09:11:01;5.87;;;1.90;;
20114;SDS011;10218;42.874;25.320;2023-02-19T09:13:30;3.20;;;2.00;;
20114;SDS011;10218;42.874;25.320;2023-02-19T09:15:57;3.63;;;2.10;;
20114;SDS011;10218;42.874;25.320;2023-02-19T09:18:26;7.60;;;2.37;;
20114;SDS011;10218;42.874;25.320;2023-02-19T09:20:58;5.30;;;2.37;;
20114;SDS011;10218;42.874;25.320;2023-02-19T09:23:31;6.50;;;2.77;;
20114;SDS011;10218;42.874;25.320;2023-02-19T09:25:59;6.30;;;2.53;;
20114;SDS011;10218;42.874;25.320;2023-02-19T09:28:29;4.73;;;1.90;;
20114;SDS011;10218;42.874;25.320;2023-02-19T09:30:56;5.37;;;2.27;;
20114;SDS011;10218;42.874;25.320;2023-02-19T09:33:23;4.87;;;2.20;;
20114;SDS011;10218;42.874;25.320;2023-02-19T09:35:50;4.53;;;2.23;;
20114;SDS011;10218;42.874;25.320;2023-02-19T09:38:17;4.63;;;2.00;;
20114;SDS011;10218;42.874;25.320;2023-02-19T09:40:44;3.10;;;2.10;;
20114;SDS011;10218;42.874;25.320;2023-02-19T09:43:14;4.90;;;1.70;;
20114;SDS011;10218;42.874;25.320;2023-02-19T09:45:45;3.73;;;1.90;;
20114;SDS011;10218;42.874;25.320;2023-02-19T09:48:13;6.80;;;2.20;;
20114;SDS011;10218;42.874;25.320;2023-02-19T09:50:43;7.33;;;2.50;;
20114;SDS011;10218;42.874;25.320;2023-02-19T09:53:20;5.83;;;2.30;;
20114;SDS011;10218;42.874;25.320;2023-02-19T09:55:50;3.10;;;2.23;;
20114;SDS011;10218;42.874;25.320;2023-02-19T09:58:25;3.30;;;2.00;;
20114;SDS011;10218;42.874;25.320;2023-02-19T10:00:59;3.33;;;2.43;;
20114;SDS011;10218;42.874;25.320;2023-02-19T10:03:33;5.03;;;2.00;;
20114;SDS011;10218;42.874;25.320;2023-02-19T10:06:07;7.90;;;2.10;;
20114;SDS011;10218;42.874;25.320;2023-02-19T10:08:45;3.30;;;1.90;;
20114;SDS011;10218;42.874;25.320;2023-02-19T10:11:13;1.50;;;1.40;;
20114;SDS011;10218;42.874;25.320;2023-02-19T10:13:43;3.00;;;1.70;;
20114;SDS011;10218;42.874;25.320;2023-02-19T10:16:18;2.80;;;2.10;;
20114;SDS011;10218;42.874;25.320;2023-02-19T10:18:49;2.37;;;1.60;;
20114;SDS011;10218;42.874;25.320;2023-02-19T10:21:18;2.63;;;1.60;;
20114;SDS011;10218;42.874;25.320;2023-02-19T10:23:52;3.67;;;2.00;;
20114;SDS011;10218;42.874;25.320;2023-02-19T10:26:23;2.63;;;1.80;;
20114;SDS011;10218;42.874;25.320;2023-02-19T10:28:51;3.97;;;2.20;;
20114;SDS011;10218;42.874;25.320;2023-02-19T10:31:21;2.93;;;1.80;;
20114;SDS011;10218;42.874;25.320;2023-02-19T10:36:27;3.03;;;1.70;;
20114;SDS011;10218;42.874;25.320;2023-02-19T10:38:59;2.80;;;1.50;;
20114;SDS011;10218;42.874;25.320;2023-02-19T10:41:28;3.90;;;1.90;;
20114;SDS011;10218;42.874;25.320;2023-02-19T10:46:27;4.90;;;2.00;;
20114;SDS011;10218;42.874;25.320;2023-02-19T10:48:58;2.00;;;1.77;;
20114;SDS011;10218;42.874;25.320;2023-02-19T10:51:36;2.90;;;1.93;;
20114;SDS011;10218;42.874;25.320;2023-02-19T10:56:43;3.17;;;2.00;;
20114;SDS011;10218;42.874;25.320;2023-02-19T10:59:14;2.53;;;1.83;;
20114;SDS011;10218;42.874;25.320;2023-02-19T11:01:58;4.77;;;1.90;;
20114;SDS011;10218;42.874;25.320;2023-02-19T11:04:28;3.23;;;1.77;;
20114;SDS011;10218;42.874;25.320;2023-02-19T11:07:12;5.10;;;2.30;;
20114;SDS011;10218;42.874;25.320;2023-02-19T11:09:43;6.67;;;2.53;;
20114;SDS011;10218;42.874;25.320;2023-02-19T11:12:13;2.20;;;1.70;;
20114;SDS011;10218;42.874;25.320;2023-02-19T11:14:52;2.73;;;1.77;;
20114;SDS011;10218;42.874;25.320;2023-02-19T11:17:23;4.90;;;2.20;;
20114;SDS011;10218;42.874;25.320;2023-02-19T11:19:57;3.47;;;2.37;;
20114;SDS011;10218;42.874;25.320;2023-02-19T11:22:34;2.87;;;2.00;;
20114;SDS011;10218;42.874;25.320;2023-02-19T11:25:06;6.67;;;2.60;;
20114;SDS011;10218;42.874;25.320;2023-02-19T11:28:00;5.47;;;2.00;;
20114;SDS011;10218;42.874;25.320;2023-02-19T11:30:36;3.47;;;2.73;;
20114;SDS011;10218;42.874;25.320;2023-02-19T11:33:38;5.33;;;2.60;;
20114;SDS011;10218;42.874;25.320;2023-02-19T11:36:14;3.10;;;2.07;;
20114;SDS011;10218;42.874;25.320;2023-02-19T11:38:49;3.23;;;2.10;;
20114;SDS011;10218;42.874;25.320;2023-02-19T11:44:34;5.00;;;2.00;;
20114;SDS011;10218;42.874;25.320;2023-02-19T12:07:29;3.70;;;1.80;;
20114;SDS011;10218;42.874;25.320;2023-02-19T12:10:26;3.60;;;1.70;;
20114;SDS011;10218;42.874;25.320;2023-02-19T12:13:19;3.53;;;1.70;;
20114;SDS011;10218;42.874;25.320;2023-02-19T12:16:22;4.60;;;1.53;;
20114;SDS011;10218;42.874;25.320;2023-02-19T12:19:03;4.17;;;1.70;;
20114;SDS011;10218;42.874;25.320;2023-02-19T12:21:47;13.73;;;10.47;;
20114;SDS011;10218;42.874;25.320;2023-02-19T12:33:08;1.97;;;1.53;;
20114;SDS011;10218;42.874;25.320;2023-02-19T12:38:44;5.40;;;2.03;;
20114;SDS011;10218;42.874;25.320;2023-02-19T12:41:42;2.93;;;1.43;;
20114;SDS011;10218;42.874;25.320;2023-02-19T12:44:15;11.03;;;5.53;;
20114;SDS011;10218;42.874;25.320;2023-02-19T12:46:52;4.10;;;1.40;;
20114;SDS011;10218;42.874;25.320;2023-02-19T12:49:47;3.97;;;1.60;;
20114;SDS011;10218;42.874;25.320;2023-02-19T12:52:35;2.53;;;1.70;;
20114;SDS011;10218;42.874;25.320;2023-02-19T12:55:18;5.83;;;4.10;;
20114;SDS011;10218;42.874;25.320;2023-02-19T12:57:50;3.17;;;1.60;;
20114;SDS011;10218;42.874;25.320;2023-02-19T13:11:00;2.63;;;2.20;;
20114;SDS011;10218;42.874;25.320;2023-02-19T13:16:11;4.57;;;1.60;;
20114;SDS011;10218;42.874;25.320;2023-02-19T13:18:47;1.20;;;1.10;;
20114;SDS011;10218;42.874;25.320;2023-02-19T13:21:19;4.57;;;1.53;;
20114;SDS011;10218;42.874;25.320;2023-02-19T13:24:14;4.47;;;1.50;;
20114;SDS011;10218;42.874;25.320;2023-02-19T13:36:08;6.13;;;1.70;;
20114;SDS011;10218;42.874;25.320;2023-02-19T13:38:49;3.65;;;1.90;;
20114;SDS011;10218;42.874;25.320;2023-02-19T13:41:59;4.37;;;1.80;;
20114;SDS011;10218;42.874;25.320;2023-02-19T13:44:19;4.00;;;1.58;;
20114;SDS011;10218;42.874;25.320;2023-02-19T13:46:50;4.53;;;1.70;;
20114;SDS011;10218;42.874;25.320;2023-02-19T13:52:00;2.13;;;1.67;;
20114;SDS011;10218;42.874;25.320;2023-02-19T13:54:28;7.53;;;1.80;;
20114;SDS011;10218;42.874;25.320;2023-02-19T13:59:44;3.83;;;2.23;;
20114;SDS011;10218;42.874;25.320;2023-02-19T14:04:54;6.50;;;3.50;;
20114;SDS011;10218;42.874;25.320;2023-02-19T14:09:53;6.03;;;2.67;;
20114;SDS011;10218;42.874;25.320;2023-02-19T14:12:21;5.87;;;2.60;;
20114;SDS011;10218;42.874;25.320;2023-02-19T14:14:56;6.53;;;2.30;;
20114;SDS011;10218;42.874;25.320;2023-02-19T14:20:40;11.00;;;4.33;;
20114;SDS011;10218;42.874;25.320;2023-02-19T14:23:17;11.83;;;3.30;;
20114;SDS011;10218;42.874;25.320;2023-02-19T14:25:52;7.23;;;3.70;;
20114;SDS011;10218;42.874;25.320;2023-02-19T14:30:59;7.67;;;3.10;;
20114;SDS011;10218;42.874;25.320;2023-02-19T14:33:36;5.93;;;2.90;;
20114;SDS011;10218;42.874;25.320;2023-02-19T14:38:48;2.90;;;2.23;;
20114;SDS011;10218;42.874;25.320;2023-02-19T14:41:19;3.77;;;1.60;;
20114;SDS011;10218;42.874;25.320;2023-02-19T14:43:49;2.93;;;1.70;;
20114;SDS011;10218;42.874;25.320;2023-02-19T14:46:40;4.67;;;2.60;;
20114;SDS011;10218;42.874;25.320;2023-02-19T14:51:47;7.03;;;3.10;;
20114;SDS011;10218;42.874;25.320;2023-02-19T14:54:38;4.50;;;3.40;;
20114;SDS011;10218;42.874;25.320;2023-02-19T14:57:40;8.87;;;4.40;;
20114;SDS011;10218;42.874;25.320;2023-02-19T15:02:53;7.40;;;4.70;;
20114;SDS011;10218;42.874;25.320;2023-02-19T15:05:24;14.07;;;5.10;;
20114;SDS011;10218;42.874;25.320;2023-02-19T15:07:52;12.57;;;6.33;;
20114;SDS011;10218;42.874;25.320;2023-02-19T15:10:22;11.97;;;6.93;;
20114;SDS011;10218;42.874;25.320;2023-02-19T15:12:50;16.77;;;7.30;;
20114;SDS011;10218;42.874;25.320;2023-02-19T15:15:26;13.50;;;8.30;;
20114;SDS011;10218;42.874;25.320;2023-02-19T15:17:55;13.53;;;9.27;;
20114;SDS011;10218;42.874;25.320;2023-02-19T15:20:25;283.23;;;78.03;;
20114;SDS011;10218;42.874;25.320;2023-02-19T15:22:55;19.57;;;10.10;;
20114;SDS011;10218;42.874;25.320;2023-02-19T15:25:27;145.27;;;43.50;;
20114;SDS011;10218;42.874;25.320;2023-02-19T15:33:24;301.07;;;95.10;;
20114;SDS011;10218;42.874;25.320;2023-02-19T15:35:54;68.03;;;23.37;;
20114;SDS011;10218;42.874;25.320;2023-02-19T15:38:24;83.33;;;27.67;;
20114;SDS011;10218;42.874;25.320;2023-02-19T15:40:52;100.87;;;36.97;;
20114;SDS011;10218;42.874;25.320;2023-02-19T15:43:26;31.13;;;15.37;;
20114;SDS011;10218;42.874;25.320;2023-02-19T15:46:18;51.07;;;19.67;;
20114;SDS011;10218;42.874;25.320;2023-02-19T15:51:51;42.07;;;18.27;;
20114;SDS011;10218;42.874;25.320;2023-02-19T15:54:32;32.00;;;16.50;;
20114;SDS011;10218;42.874;25.320;2023-02-19T15:57:18;38.57;;;20.77;;
20114;SDS011;10218;42.874;25.320;2023-02-19T15:59:54;36.90;;;19.97;;
20114;SDS011;10218;42.874;25.320;2023-02-19T16:02:37;38.33;;;20.77;;
20114;SDS011;10218;42.874;25.320;2023-02-19T16:05:21;46.33;;;23.40;;
20114;SDS011;10218;42.874;25.320;2023-02-19T16:08:07;55.80;;;31.67;;
20114;SDS011;10218;42.874;25.320;2023-02-19T16:10:53;84.00;;;45.70;;
20114;SDS011;10218;42.874;25.320;2023-02-19T16:13:26;83.50;;;42.80;;
20114;SDS011;10218;42.874;25.320;2023-02-19T16:16:02;57.07;;;32.17;;
20114;SDS011;10218;42.874;25.320;2023-02-19T16:18:33;69.53;;;36.63;;
20114;SDS011;10218;42.874;25.320;2023-02-19T16:21:03;82.00;;;45.67;;
20114;SDS011;10218;42.874;25.320;2023-02-19T16:23:34;85.97;;;45.10;;
20114;SDS011;10218;42.874;25.320;2023-02-19T16:26:07;51.30;;;28.87;;
20114;SDS011;10218;42.874;25.320;2023-02-19T16:28:35;54.90;;;30.10;;
20114;SDS011;10218;42.874;25.320;2023-02-19T16:31:04;62.90;;;34.83;;
20114;SDS011;10218;42.874;25.320;2023-02-19T16:33:36;61.07;;;33.93;;
20114;SDS011;10218;42.874;25.320;2023-02-19T16:47:05;50.67;;;26.43;;
20114;SDS011;10218;42.874;25.320;2023-02-19T16:49:49;49.27;;;26.77;;
20114;SDS011;10218;42.874;25.320;2023-02-19T16:52:16;53.93;;;30.97;;
20114;SDS011;10218;42.874;25.320;2023-02-19T16:54:44;27.37;;;15.93;;
20114;SDS011;10218;42.874;25.320;2023-02-19T16:57:13;21.23;;;11.23;;
20114;SDS011;10218;42.874;25.320;2023-02-19T16:59:40;35.60;;;19.93;;
20114;SDS011;10218;42.874;25.320;2023-02-19T17:02:09;62.83;;;34.47;;
20114;SDS011;10218;42.874;25.320;2023-02-19T17:04:45;59.77;;;32.70;;
20114;SDS011;10218;42.874;25.320;2023-02-19T17:07:14;65.83;;;35.70;;
20114;SDS011;10218;42.874;25.320;2023-02-19T17:09:43;64.27;;;36.33;;
20114;SDS011;10218;42.874;25.320;2023-02-19T17:12:11;65.50;;;35.83;;